sensor_id;sensor_type;location;lat;lon;timestamp;temperature;humidity
10726;DHT22;5414;59.782;16.378;2024-01-06T00:00:34;-14.30;99.90
10726;DHT22;5414;59.782;16.378;2024-01-06T00:03:00;-14.20;99.90
10726;DHT22;5414;59.782;16.378;2024-01-06T00:05:26;-14.20;99.90
10726;DHT22;5414;59.782;16.378;2024-01-06T00:07:51;-14.10;99.90
10726;DHT22;5414;59.782;16.378;2024-01-06T00:10:17;-14.00;99.90
10726;DHT22;5414;59.782;16.378;2024-01-06T00:12:43;-13.90;99.90
10726;DHT22;5414;59.782;16.378;2024-01-06T00:15:09;-14.10;99.90
10726;DHT22;5414;59.782;16.378;2024-01-06T00:17:36;-14.30;99.90
10726;DHT22;5414;59.782;16.378;2024-01-06T00:20:02;-14.40;99.90
10726;DHT22;5414;59.782;16.378;2024-01-06T00:22:28;-14.40;99.90
10726;DHT22;5414;59.782;16.378;2024-01-06T00:24:53;-14.50;99.90
10726;DHT22;5414;59.782;16.378;2024-01-06T00:27:19;-14.70;99.90
10726;DHT22;5414;59.782;16.378;2024-01-06T00:29:45;-14.70;99.90
10726;DHT22;5414;59.782;16.378;2024-01-06T00:32:11;-14.60;99.90
10726;DHT22;5414;59.782;16.378;2024-01-06T00:34:37;-14.60;99.90
10726;DHT22;5414;59.782;16.378;2024-01-06T00:37:02;-14.50;99.90
10726;DHT22;5414;59.782;16.378;2024-01-06T00:39:28;-14.60;99.90
10726;DHT22;5414;59.782;16.378;2024-01-06T00:41:54;-14.70;99.90
10726;DHT22;5414;59.782;16.378;2024-01-06T00:44:20;-14.80;99.90
10726;DHT22;5414;59.782;16.378;2024-01-06T00:46:45;-15.00;99.90
10726;DHT22;5414;59.782;16.378;2024-01-06T00:49:11;-15.00;99.90
10726;DHT22;5414;59.782;16.378;2024-01-06T00:51:36;-15.10;99.90
10726;DHT22;5414;59.782;16.378;2024-01-06T00:54:02;-14.90;99.90
10726;DHT22;5414;59.782;16.378;2024-01-06T00:56:28;-14.80;99.90
10726;DHT22;5414;59.782;16.378;2024-01-06T00:58:54;-14.60;99.90
10726;DHT22;5414;59.782;16.378;2024-01-06T01:01:20;-14.40;99.90
10726;DHT22;5414;59.782;16.378;2024-01-06T01:03:46;-14.40;99.90
10726;DHT22;5414;59.782;16.378;2024-01-06T01:06:12;-14.40;99.90
10726;DHT22;5414;59.782;16.378;2024-01-06T01:08:37;-14.40;99.90
10726;DHT22;5414;59.782;16.378;2024-01-06T01:11:03;-14.30;99.90
10726;DHT22;5414;59.782;16.378;2024-01-06T01:13:29;-14.50;99.90
10726;DHT22;5414;59.782;16.378;2024-01-06T01:15:55;-14.50;99.90
10726;DHT22;5414;59.782;16.378;2024-01-06T01:18:21;-14.50;99.90
10726;DHT22;5414;59.782;16.378;2024-01-06T01:20:47;-14.60;99.90
10726;DHT22;5414;59.782;16.378;2024-01-06T01:23:12;-14.80;99.90
10726;DHT22;5414;59.782;16.378;2024-01-06T01:25:38;-14.80;99.90
10726;DHT22;5414;59.782;16.378;2024-01-06T01:28:05;-14.80;99.90
10726;DHT22;5414;59.782;16.378;2024-01-06T01:30:30;-14.70;99.90
10726;DHT22;5414;59.782;16.378;2024-01-06T01:32:58;-14.70;99.90
10726;DHT22;5414;59.782;16.378;2024-01-06T01:35:23;-14.60;99.90
10726;DHT22;5414;59.782;16.378;2024-01-06T01:37:49;-14.80;99.90
10726;DHT22;5414;59.782;16.378;2024-01-06T01:40:15;-14.90;99.90
10726;DHT22;5414;59.782;16.378;2024-01-06T01:42:42;-15.20;99.90
10726;DHT22;5414;59.782;16.378;2024-01-06T01:45:08;-15.30;99.90
10726;DHT22;5414;59.782;16.378;2024-01-06T01:47:34;-15.20;99.90
10726;DHT22;5414;59.782;16.378;2024-01-06T01:50:00;-15.20;99.90
10726;DHT22;5414;59.782;16.378;2024-01-06T01:52:27;-15.10;99.90
10726;DHT22;5414;59.782;16.378;2024-01-06T01:54:53;-15.20;99.90
10726;DHT22;5414;59.782;16.378;2024-01-06T01:57:21;-15.50;99.90
10726;DHT22;5414;59.782;16.378;2024-01-06T02:02:16;-15.50;99.90
10726;DHT22;5414;59.782;16.378;2024-01-06T02:04:42;-15.60;99.90
10726;DHT22;5414;59.782;16.378;2024-01-06T02:09:35;-15.60;99.90
10726;DHT22;5414;59.782;16.378;2024-01-06T02:12:00;-15.60;99.90
10726;DHT22;5414;59.782;16.378;2024-01-06T02:14:26;-15.60;99.90
10726;DHT22;5414;59.782;16.378;2024-01-06T02:16:52;-15.60;99.90
10726;DHT22;5414;59.782;16.378;2024-01-06T02:19:18;-15.60;99.90
10726;DHT22;5414;59.782;16.378;2024-01-06T02:21:47;-15.60;99.90
10726;DHT22;5414;59.782;16.378;2024-01-06T02:24:13;-15.60;99.90
10726;DHT22;5414;59.782;16.378;2024-01-06T02:36:23;-15.60;99.90
10726;DHT22;5414;59.782;16.378;2024-01-06T02:38:48;-15.50;99.90
